sensor_id;sensor_type;location;lat;lon;timestamp;P1;durP1;ratioP1;P2;durP2;ratioP2
64353;SDS011;50681;53.334;-6.536;2023-02-14T00:02:15;28.25;;;17.70;;
64353;SDS011;50681;53.334;-6.536;2023-02-14T00:04:40;29.77;;;17.33;;
64353;SDS011;50681;53.334;-6.536;2023-02-14T00:07:09;39.72;;;19.95;;
64353;SDS011;50681;53.334;-6.536;2023-02-14T00:09:35;37.92;;;20.48;;
64353;SDS011;50681;53.334;-6.536;2023-02-14T00:12:08;37.45;;;18.00;;
64353;SDS011;50681;53.334;-6.536;2023-02-14T00:14:34;32.67;;;16.85;;
64353;SDS011;50681;53.334;-6.536;2023-02-14T00:17:18;30.13;;;18.30;;
64353;SDS011;50681;53.334;-6.536;2023-02-14T00:19:43;33.50;;;20.17;;
64353;SDS011;50681;53.334;-6.536;2023-02-14T00:22:12;28.83;;;18.23;;
64353;SDS011;50681;53.334;-6.536;2023-02-14T00:24:41;30.33;;;16.58;;
64353;SDS011;50681;53.334;-6.536;2023-02-14T00:27:09;35.53;;;18.38;;
64353;SDS011;50681;53.334;-6.536;2023-02-14T00:29:40;31.15;;;16.85;;
64353;SDS011;50681;53.334;-6.536;2023-02-14T00:32:08;26.23;;;17.52;;
64353;SDS011;50681;53.334;-6.536;2023-02-14T00:34:36;37.60;;;18.75;;
64353;SDS011;50681;53.334;-6.536;2023-02-14T00:37:04;28.25;;;18.92;;
64353;SDS011;50681;53.334;-6.536;2023-02-14T00:39:29;29.10;;;18.93;;
64353;SDS011;50681;53.334;-6.536;2023-02-14T00:41:58;35.83;;;18.80;;
64353;SDS011;50681;53.334;-6.536;2023-02-14T00:44:23;29.00;;;18.83;;
64353;SDS011;50681;53.334;-6.536;2023-02-14T00:46:49;34.10;;;19.20;;
64353;SDS011;50681;53.334;-6.536;2023-02-14T00:49:16;30.13;;;18.33;;
64353;SDS011;50681;53.334;-6.536;2023-02-14T00:51:41;29.73;;;18.40;;
64353;SDS011;50681;53.334;-6.536;2023-02-14T00:54:06;35.23;;;18.53;;
64353;SDS011;50681;53.334;-6.536;2023-02-14T00:56:32;30.80;;;18.80;;
64353;SDS011;50681;53.334;-6.536;2023-02-14T00:59:01;28.17;;;18.35;;
64353;SDS011;50681;53.334;-6.536;2023-02-14T01:01:26;25.92;;;17.60;;
64353;SDS011;50681;53.334;-6.536;2023-02-14T01:03:52;28.93;;;17.60;;
64353;SDS011;50681;53.334;-6.536;2023-02-14T01:06:24;30.90;;;16.92;;
64353;SDS011;50681;53.334;-6.536;2023-02-14T01:08:49;27.80;;;16.98;;
64353;SDS011;50681;53.334;-6.536;2023-02-14T01:11:19;29.27;;;17.02;;
64353;SDS011;50681;53.334;-6.536;2023-02-14T01:13:46;27.48;;;15.18;;
64353;SDS011;50681;53.334;-6.536;2023-02-14T01:16:14;22.48;;;15.02;;
64353;SDS011;50681;53.334;-6.536;2023-02-14T01:18:41;23.45;;;13.73;;
64353;SDS011;50681;53.334;-6.536;2023-02-14T01:21:09;24.50;;;15.38;;
64353;SDS011;50681;53.334;-6.536;2023-02-14T01:23:36;26.45;;;14.73;;
64353;SDS011;50681;53.334;-6.536;2023-02-14T01:26:05;24.33;;;13.57;;
64353;SDS011;50681;53.334;-6.536;2023-02-14T01:28:31;28.50;;;14.07;;
64353;SDS011;50681;53.334;-6.536;2023-02-14T01:30:56;30.57;;;14.13;;
64353;SDS011;50681;53.334;-6.536;2023-02-14T01:33:22;33.53;;;13.27;;
64353;SDS011;50681;53.334;-6.536;2023-02-14T01:35:48;23.13;;;12.63;;
64353;SDS011;50681;53.334;-6.536;2023-02-14T01:38:13;26.87;;;13.33;;
64353;SDS011;50681;53.334;-6.536;2023-02-14T01:40:44;25.67;;;13.67;;
64353;SDS011;50681;53.334;-6.536;2023-02-14T01:43:16;29.08;;;16.17;;
64353;SDS011;50681;53.334;-6.536;2023-02-14T01:45:41;30.25;;;16.27;;
64353;SDS011;50681;53.334;-6.536;2023-02-14T01:48:07;34.77;;;16.27;;
64353;SDS011;50681;53.334;-6.536;2023-02-14T01:50:35;30.15;;;16.20;;
64353;SDS011;50681;53.334;-6.536;2023-02-14T01:53:05;30.63;;;17.33;;
64353;SDS011;50681;53.334;-6.536;2023-02-14T01:55:36;33.97;;;17.25;;
64353;SDS011;50681;53.334;-6.536;2023-02-14T01:58:09;28.95;;;16.23;;
64353;SDS011;50681;53.334;-6.536;2023-02-14T02:00:39;28.58;;;17.20;;
64353;SDS011;50681;53.334;-6.536;2023-02-14T02:06:15;27.60;;;16.65;;
64353;SDS011;50681;53.334;-6.536;2023-02-14T02:09:09;27.92;;;16.85;;
64353;SDS011;50681;53.334;-6.536;2023-02-14T02:11:42;25.52;;;14.98;;
64353;SDS011;50681;53.334;-6.536;2023-02-14T02:14:16;35.65;;;17.35;;
64353;SDS011;50681;53.334;-6.536;2023-02-14T02:27:52;31.52;;;17.30;;
64353;SDS011;50681;53.334;-6.536;2023-02-14T02:44:57;35.72;;;17.92;;
64353;SDS011;50681;53.334;-6.536;2023-02-14T02:50:06;38.72;;;21.08;;
64353;SDS011;50681;53.334;-6.536;2023-02-14T02:53:05;39.03;;;20.97;;
64353;SDS011;50681;53.334;-6.536;2023-02-14T02:55:42;38.33;;;21.13;;
64353;SDS011;50681;53.334;-6.536;2023-02-14T02:58:47;37.67;;;19.97;;
64353;SDS011;50681;53.334;-6.536;2023-02-14T03:01:16;35.22;;;19.10;;
64353;SDS011;50681;53.334;-6.536;2023-02-14T03:03:47;38.53;;;20.55;;
64353;SDS011;50681;53.334;-6.536;2023-02-14T03:06:34;39.40;;;20.27;;
64353;SDS011;50681;53.334;-6.536;2023-02-14T03:09:11;36.47;;;19.60;;
64353;SDS011;50681;53.334;-6.536;2023-02-14T03:11:45;35.35;;;19.23;;
64353;SDS011;50681;53.334;-6.536;2023-02-14T03:14:34;30.43;;;17.77;;
64353;SDS011;50681;53.334;-6.536;2023-02-14T03:27:58;26.15;;;14.73;;
64353;SDS011;50681;53.334;-6.536;2023-02-14T03:33:13;30.83;;;17.40;;
64353;SDS011;50681;53.334;-6.536;2023-02-14T03:38:23;31.42;;;17.73;;
64353;SDS011;50681;53.334;-6.536;2023-02-14T03:41:04;31.63;;;16.95;;
64353;SDS011;50681;53.334;-6.536;2023-02-14T03:43:34;30.40;;;17.27;;
64353;SDS011;50681;53.334;-6.536;2023-02-14T03:48:34;40.58;;;17.52;;
64353;SDS011;50681;53.334;-6.536;2023-02-14T03:51:02;42.80;;;21.45;;
64353;SDS011;50681;53.334;-6.536;2023-02-14T03:53:32;42.53;;;20.55;;
64353;SDS011;50681;53.334;-6.536;2023-02-14T03:56:02;37.55;;;21.27;;
64353;SDS011;50681;53.334;-6.536;2023-02-14T03:58:38;36.33;;;21.30;;
64353;SDS011;50681;53.334;-6.536;2023-02-14T04:01:41;37.20;;;21.07;;
64353;SDS011;50681;53.334;-6.536;2023-02-14T04:04:00;35.33;;;20.23;;
64353;SDS011;50681;53.334;-6.536;2023-02-14T04:06:29;36.05;;;20.30;;
64353;SDS011;50681;53.334;-6.536;2023-02-14T04:08:54;34.33;;;20.70;;
64353;SDS011;50681;53.334;-6.536;2023-02-14T04:11:20;41.13;;;21.00;;
64353;SDS011;50681;53.334;-6.536;2023-02-14T04:13:45;38.23;;;21.60;;
64353;SDS011;50681;53.334;-6.536;2023-02-14T04:16:11;35.07;;;20.20;;
64353;SDS011;50681;53.334;-6.536;2023-02-14T04:18:36;36.67;;;19.00;;
64353;SDS011;50681;53.334;-6.536;2023-02-14T04:21:20;40.38;;;18.77;;
64353;SDS011;50681;53.334;-6.536;2023-02-14T04:23:45;34.57;;;18.73;;
64353;SDS011;50681;53.334;-6.536;2023-02-14T04:26:11;37.27;;;20.00;;
64353;SDS011;50681;53.334;-6.536;2023-02-14T04:28:36;38.87;;;20.33;;
64353;SDS011;50681;53.334;-6.536;2023-02-14T04:31:02;34.90;;;18.63;;
64353;SDS011;50681;53.334;-6.536;2023-02-14T04:33:30;33.13;;;19.35;;
64353;SDS011;50681;53.334;-6.536;2023-02-14T04:35:56;35.22;;;21.05;;
64353;SDS011;50681;53.334;-6.536;2023-02-14T04:38:22;31.08;;;18.80;;
64353;SDS011;50681;53.334;-6.536;2023-02-14T04:40:48;31.80;;;18.40;;
64353;SDS011;50681;53.334;-6.536;2023-02-14T04:43:15;36.90;;;19.40;;
64353;SDS011;50681;53.334;-6.536;2023-02-14T04:45:40;34.87;;;20.63;;
64353;SDS011;50681;53.334;-6.536;2023-02-14T04:48:05;35.47;;;19.20;;
64353;SDS011;50681;53.334;-6.536;2023-02-14T04:50:31;40.30;;;21.77;;
64353;SDS011;50681;53.334;-6.536;2023-02-14T04:52:56;36.50;;;19.23;;
64353;SDS011;50681;53.334;-6.536;2023-02-14T04:55:22;37.83;;;19.53;;
64353;SDS011;50681;53.334;-6.536;2023-02-14T04:57:47;32.67;;;18.50;;
64353;SDS011;50681;53.334;-6.536;2023-02-14T05:00:13;35.13;;;18.50;;
64353;SDS011;50681;53.334;-6.536;2023-02-14T05:02:39;36.53;;;18.23;;
64353;SDS011;50681;53.334;-6.536;2023-02-14T05:05:04;30.13;;;18.30;;
64353;SDS011;50681;53.334;-6.536;2023-02-14T05:07:30;33.25;;;18.10;;
64353;SDS011;50681;53.334;-6.536;2023-02-14T05:09:56;32.90;;;17.33;;
64353;SDS011;50681;53.334;-6.536;2023-02-14T05:12:21;39.90;;;17.17;;
64353;SDS011;50681;53.334;-6.536;2023-02-14T05:14:46;28.20;;;16.77;;
64353;SDS011;50681;53.334;-6.536;2023-02-14T05:17:12;35.43;;;16.33;;
64353;SDS011;50681;53.334;-6.536;2023-02-14T05:19:37;29.13;;;15.47;;
64353;SDS011;50681;53.334;-6.536;2023-02-14T05:22:03;38.60;;;16.20;;
64353;SDS011;50681;53.334;-6.536;2023-02-14T05:24:29;33.93;;;14.63;;
64353;SDS011;50681;53.334;-6.536;2023-02-14T05:26:54;29.47;;;13.67;;
64353;SDS011;50681;53.334;-6.536;2023-02-14T05:29:19;37.27;;;13.00;;
64353;SDS011;50681;53.334;-6.536;2023-02-14T05:31:45;28.33;;;13.37;;
64353;SDS011;50681;53.334;-6.536;2023-02-14T05:34:10;36.80;;;12.00;;
64353;SDS011;50681;53.334;-6.536;2023-02-14T05:36:36;21.00;;;10.37;;
64353;SDS011;50681;53.334;-6.536;2023-02-14T05:39:02;35.70;;;10.10;;
64353;SDS011;50681;53.334;-6.536;2023-02-14T05:41:28;29.75;;;9.75;;
64353;SDS011;50681;53.334;-6.536;2023-02-14T05:43:53;28.53;;;9.27;;
64353;SDS011;50681;53.334;-6.536;2023-02-14T05:46:19;36.07;;;10.27;;
64353;SDS011;50681;53.334;-6.536;2023-02-14T05:48:47;31.77;;;9.67;;
64353;SDS011;50681;53.334;-6.536;2023-02-14T05:51:13;32.67;;;10.95;;
64353;SDS011;50681;53.334;-6.536;2023-02-14T05:53:38;26.98;;;9.30;;
64353;SDS011;50681;53.334;-6.536;2023-02-14T05:56:07;24.65;;;10.18;;
64353;SDS011;50681;53.334;-6.536;2023-02-14T05:58:35;33.13;;;10.07;;
64353;SDS011;50681;53.334;-6.536;2023-02-14T06:01:04;35.20;;;11.13;;
64353;SDS011;50681;53.334;-6.536;2023-02-14T06:03:30;23.97;;;10.47;;
64353;SDS011;50681;53.334;-6.536;2023-02-14T06:05:55;25.40;;;10.57;;
64353;SDS011;50681;53.334;-6.536;2023-02-14T06:08:21;32.37;;;10.67;;
64353;SDS011;50681;53.334;-6.536;2023-02-14T06:10:46;31.27;;;10.37;;
64353;SDS011;50681;53.334;-6.536;2023-02-14T06:13:12;35.80;;;10.60;;
64353;SDS011;50681;53.334;-6.536;2023-02-14T06:15:37;37.00;;;11.93;;
64353;SDS011;50681;53.334;-6.536;2023-02-14T06:18:03;36.53;;;11.20;;
64353;SDS011;50681;53.334;-6.536;2023-02-14T06:20:30;25.95;;;11.23;;
64353;SDS011;50681;53.334;-6.536;2023-02-14T06:22:56;27.88;;;10.68;;
64353;SDS011;50681;53.334;-6.536;2023-02-14T06:25:22;30.20;;;12.20;;
64353;SDS011;50681;53.334;-6.536;2023-02-14T06:27:48;29.25;;;11.57;;
64353;SDS011;50681;53.334;-6.536;2023-02-14T06:30:15;26.90;;;11.57;;
64353;SDS011;50681;53.334;-6.536;2023-02-14T06:32:42;24.17;;;12.52;;
64353;SDS011;50681;53.334;-6.536;2023-02-14T06:35:07;27.40;;;11.43;;
64353;SDS011;50681;53.334;-6.536;2023-02-14T06:37:33;32.93;;;12.17;;
64353;SDS011;50681;53.334;-6.536;2023-02-14T06:39:58;29.60;;;11.57;;
64353;SDS011;50681;53.334;-6.536;2023-02-14T06:42:24;26.60;;;12.20;;
64353;SDS011;50681;53.334;-6.536;2023-02-14T06:44:49;27.77;;;11.57;;
64353;SDS011;50681;53.334;-6.536;2023-02-14T06:47:15;23.43;;;10.63;;
64353;SDS011;50681;53.334;-6.536;2023-02-14T06:49:41;31.58;;;11.85;;
64353;SDS011;50681;53.334;-6.536;2023-02-14T06:52:06;34.87;;;11.87;;
64353;SDS011;50681;53.334;-6.536;2023-02-14T06:54:31;31.10;;;11.20;;
64353;SDS011;50681;53.334;-6.536;2023-02-14T06:56:57;29.55;;;10.60;;
64353;SDS011;50681;53.334;-6.536;2023-02-14T06:59:23;29.80;;;11.90;;
64353;SDS011;50681;53.334;-6.536;2023-02-14T07:01:48;30.53;;;11.33;;
64353;SDS011;50681;53.334;-6.536;2023-02-14T07:04:14;28.10;;;10.87;;
64353;SDS011;50681;53.334;-6.536;2023-02-14T07:06:39;29.30;;;9.70;;
64353;SDS011;50681;53.334;-6.536;2023-02-14T07:09:04;32.90;;;11.30;;
64353;SDS011;50681;53.334;-6.536;2023-02-14T07:11:33;28.87;;;10.47;;
64353;SDS011;50681;53.334;-6.536;2023-02-14T07:13:58;26.48;;;9.82;;
64353;SDS011;50681;53.334;-6.536;2023-02-14T07:16:24;22.57;;;8.43;;
64353;SDS011;50681;53.334;-6.536;2023-02-14T07:18:49;18.70;;;6.60;;
64353;SDS011;50681;53.334;-6.536;2023-02-14T07:21:15;20.17;;;7.10;;
64353;SDS011;50681;53.334;-6.536;2023-02-14T07:23:40;22.50;;;6.90;;
64353;SDS011;50681;53.334;-6.536;2023-02-14T07:26:06;27.63;;;6.90;;
64353;SDS011;50681;53.334;-6.536;2023-02-14T07:28:31;25.83;;;7.57;;
64353;SDS011;50681;53.334;-6.536;2023-02-14T07:31:00;30.77;;;8.27;;
64353;SDS011;50681;53.334;-6.536;2023-02-14T07:33:27;20.90;;;7.47;;
64353;SDS011;50681;53.334;-6.536;2023-02-14T07:35:52;25.50;;;7.83;;
64353;SDS011;50681;53.334;-6.536;2023-02-14T07:38:18;26.08;;;8.05;;
64353;SDS011;50681;53.334;-6.536;2023-02-14T07:40:43;37.73;;;9.23;;
64353;SDS011;50681;53.334;-6.536;2023-02-14T07:43:09;22.43;;;7.40;;
64353;SDS011;50681;53.334;-6.536;2023-02-14T07:45:34;26.73;;;8.43;;
64353;SDS011;50681;53.334;-6.536;2023-02-14T07:48:00;26.27;;;8.02;;
64353;SDS011;50681;53.334;-6.536;2023-02-14T07:50:26;23.17;;;7.60;;
64353;SDS011;50681;53.334;-6.536;2023-02-14T07:52:53;25.15;;;7.40;;
64353;SDS011;50681;53.334;-6.536;2023-02-14T07:55:19;18.70;;;7.78;;
64353;SDS011;50681;53.334;-6.536;2023-02-14T07:57:46;33.77;;;7.80;;
64353;SDS011;50681;53.334;-6.536;2023-02-14T08:00:12;28.48;;;9.00;;
64353;SDS011;50681;53.334;-6.536;2023-02-14T08:02:39;33.78;;;8.68;;
64353;SDS011;50681;53.334;-6.536;2023-02-14T08:05:04;29.67;;;8.87;;
64353;SDS011;50681;53.334;-6.536;2023-02-14T08:07:30;25.67;;;8.07;;
64353;SDS011;50681;53.334;-6.536;2023-02-14T08:09:55;44.40;;;9.37;;
64353;SDS011;50681;53.334;-6.536;2023-02-14T08:12:23;27.30;;;10.23;;
64353;SDS011;50681;53.334;-6.536;2023-02-14T08:15:07;38.70;;;10.25;;
64353;SDS011;50681;53.334;-6.536;2023-02-14T08:17:52;41.58;;;10.93;;
64353;SDS011;50681;53.334;-6.536;2023-02-14T08:20:17;41.27;;;10.57;;
64353;SDS011;50681;53.334;-6.536;2023-02-14T08:22:43;37.97;;;10.07;;
64353;SDS011;50681;53.334;-6.536;2023-02-14T08:25:08;32.67;;;11.03;;
64353;SDS011;50681;53.334;-6.536;2023-02-14T08:27:34;47.63;;;10.93;;
64353;SDS011;50681;53.334;-6.536;2023-02-14T08:29:59;38.83;;;10.90;;
64353;SDS011;50681;53.334;-6.536;2023-02-14T08:32:25;27.73;;;10.23;;
64353;SDS011;50681;53.334;-6.536;2023-02-14T08:34:50;41.30;;;9.93;;
64353;SDS011;50681;53.334;-6.536;2023-02-14T08:37:15;29.70;;;9.67;;
64353;SDS011;50681;53.334;-6.536;2023-02-14T08:39:41;28.90;;;8.50;;
64353;SDS011;50681;53.334;-6.536;2023-02-14T08:42:06;33.63;;;9.73;;
64353;SDS011;50681;53.334;-6.536;2023-02-14T08:44:32;38.10;;;9.70;;
64353;SDS011;50681;53.334;-6.536;2023-02-14T08:46:57;28.50;;;8.17;;
64353;SDS011;50681;53.334;-6.536;2023-02-14T08:49:23;22.67;;;7.87;;
64353;SDS011;50681;53.334;-6.536;2023-02-14T08:51:48;23.33;;;8.27;;
64353;SDS011;50681;53.334;-6.536;2023-02-14T08:54:14;27.83;;;6.47;;
64353;SDS011;50681;53.334;-6.536;2023-02-14T08:56:39;24.50;;;6.27;;
64353;SDS011;50681;53.334;-6.536;2023-02-14T08:59:05;17.63;;;5.50;;
64353;SDS011;50681;53.334;-6.536;2023-02-14T09:01:31;23.23;;;5.55;;
64353;SDS011;50681;53.334;-6.536;2023-02-14T09:03:56;19.47;;;5.23;;
64353;SDS011;50681;53.334;-6.536;2023-02-14T09:06:22;31.40;;;5.90;;
64353;SDS011;50681;53.334;-6.536;2023-02-14T09:08:47;23.13;;;5.50;;
64353;SDS011;50681;53.334;-6.536;2023-02-14T09:11:14;35.33;;;6.37;;
64353;SDS011;50681;53.334;-6.536;2023-02-14T09:13:46;21.05;;;5.57;;
64353;SDS011;50681;53.334;-6.536;2023-02-14T09:16:13;25.05;;;7.43;;
64353;SDS011;50681;53.334;-6.536;2023-02-14T09:18:41;28.92;;;6.30;;
64353;SDS011;50681;53.334;-6.536;2023-02-14T09:21:07;28.20;;;6.43;;
64353;SDS011;50681;53.334;-6.536;2023-02-14T09:23:34;21.75;;;5.00;;
64353;SDS011;50681;53.334;-6.536;2023-02-14T09:26:04;17.30;;;4.97;;
64353;SDS011;50681;53.334;-6.536;2023-02-14T09:28:31;19.35;;;4.95;;
64353;SDS011;50681;53.334;-6.536;2023-02-14T09:30:57;19.17;;;4.43;;
64353;SDS011;50681;53.334;-6.536;2023-02-14T09:33:25;12.18;;;4.70;;
64353;SDS011;50681;53.334;-6.536;2023-02-14T09:35:51;16.67;;;4.22;;
64353;SDS011;50681;53.334;-6.536;2023-02-14T09:38:35;15.30;;;4.65;;
64353;SDS011;50681;53.334;-6.536;2023-02-14T09:41:04;23.87;;;4.40;;
64353;SDS011;50681;53.334;-6.536;2023-02-14T09:43:43;21.98;;;5.22;;
64353;SDS011;50681;53.334;-6.536;2023-02-14T09:46:30;34.17;;;13.65;;
64353;SDS011;50681;53.334;-6.536;2023-02-14T09:49:04;82.78;;;45.17;;
64353;SDS011;50681;53.334;-6.536;2023-02-14T09:51:37;38.13;;;13.07;;
64353;SDS011;50681;53.334;-6.536;2023-02-14T09:54:14;82.07;;;55.95;;
64353;SDS011;50681;53.334;-6.536;2023-02-14T09:59:34;24.10;;;5.82;;
64353;SDS011;50681;53.334;-6.536;2023-02-14T10:16:10;16.50;;;3.45;;
64353;SDS011;50681;53.334;-6.536;2023-02-14T10:18:45;16.98;;;5.45;;
64353;SDS011;50681;53.334;-6.536;2023-02-14T10:21:23;23.27;;;4.80;;
64353;SDS011;50681;53.334;-6.536;2023-02-14T10:23:53;21.10;;;5.07;;
64353;SDS011;50681;53.334;-6.536;2023-02-14T10:26:47;24.23;;;5.18;;
64353;SDS011;50681;53.334;-6.536;2023-02-14T10:29:16;27.77;;;6.15;;
64353;SDS011;50681;53.334;-6.536;2023-02-14T10:34:33;19.65;;;5.53;;
64353;SDS011;50681;53.334;-6.536;2023-02-14T10:40:03;30.88;;;6.82;;
64353;SDS011;50681;53.334;-6.536;2023-02-14T10:45:08;46.88;;;6.60;;
64353;SDS011;50681;53.334;-6.536;2023-02-14T10:48:13;37.78;;;6.65;;
64353;SDS011;50681;53.334;-6.536;2023-02-14T10:50:48;28.75;;;5.82;;
64353;SDS011;50681;53.334;-6.536;2023-02-14T10:53:33;27.27;;;6.10;;
64353;SDS011;50681;53.334;-6.536;2023-02-14T10:56:30;26.83;;;6.30;;
64353;SDS011;50681;53.334;-6.536;2023-02-14T10:59:01;33.75;;;5.88;;
64353;SDS011;50681;53.334;-6.536;2023-02-14T11:01:39;25.75;;;5.90;;
64353;SDS011;50681;53.334;-6.536;2023-02-14T11:04:04;25.73;;;5.68;;
64353;SDS011;50681;53.334;-6.536;2023-02-14T11:06:32;44.10;;;6.55;;
64353;SDS011;50681;53.334;-6.536;2023-02-14T11:08:58;30.95;;;5.75;;
64353;SDS011;50681;53.334;-6.536;2023-02-14T11:11:37;31.17;;;7.20;;
64353;SDS011;50681;53.334;-6.536;2023-02-14T11:16:54;32.10;;;6.28;;
64353;SDS011;50681;53.334;-6.536;2023-02-14T11:26:56;22.85;;;5.88;;
64353;SDS011;50681;53.334;-6.536;2023-02-14T11:29:43;30.85;;;5.97;;
64353;SDS011;50681;53.334;-6.536;2023-02-14T11:32:23;14.52;;;5.00;;
64353;SDS011;50681;53.334;-6.536;2023-02-14T11:35:04;25.20;;;5.43;;
64353;SDS011;50681;53.334;-6.536;2023-02-14T11:37:41;30.40;;;5.68;;
64353;SDS011;50681;53.334;-6.536;2023-02-14T11:40:26;34.10;;;6.25;;
64353;SDS011;50681;53.334;-6.536;2023-02-14T11:42:53;32.05;;;6.50;;
64353;SDS011;50681;53.334;-6.536;2023-02-14T11:48:11;30.38;;;7.43;;
64353;SDS011;50681;53.334;-6.536;2023-02-14T11:56:14;38.33;;;5.93;;
64353;SDS011;50681;53.334;-6.536;2023-02-14T11:58:53;33.85;;;5.63;;
64353;SDS011;50681;53.334;-6.536;2023-02-14T12:01:28;31.20;;;5.95;;
64353;SDS011;50681;53.334;-6.536;2023-02-14T12:03:57;28.75;;;5.70;;
64353;SDS011;50681;53.334;-6.536;2023-02-14T12:06:29;27.95;;;5.35;;
64353;SDS011;50681;53.334;-6.536;2023-02-14T12:11:55;32.55;;;5.25;;
64353;SDS011;50681;53.334;-6.536;2023-02-14T12:14:40;32.75;;;5.47;;
64353;SDS011;50681;53.334;-6.536;2023-02-14T12:17:12;31.67;;;6.97;;
64353;SDS011;50681;53.334;-6.536;2023-02-14T12:20:07;41.50;;;6.40;;
64353;SDS011;50681;53.334;-6.536;2023-02-14T12:25:17;61.70;;;7.10;;
64353;SDS011;50681;53.334;-6.536;2023-02-14T12:27:51;42.28;;;6.78;;
64353;SDS011;50681;53.334;-6.536;2023-02-14T12:32:53;46.63;;;8.10;;
64353;SDS011;50681;53.334;-6.536;2023-02-14T12:43:52;54.08;;;10.20;;
64353;SDS011;50681;53.334;-6.536;2023-02-14T12:49:04;30.50;;;5.32;;
64353;SDS011;50681;53.334;-6.536;2023-02-14T12:54:52;36.15;;;6.30;;
64353;SDS011;50681;53.334;-6.536;2023-02-14T12:57:48;33.90;;;7.07;;
64353;SDS011;50681;53.334;-6.536;2023-02-14T13:05:48;22.33;;;5.22;;
64353;SDS011;50681;53.334;-6.536;2023-02-14T13:11:53;28.83;;;5.07;;
64353;SDS011;50681;53.334;-6.536;2023-02-14T13:19:51;23.60;;;4.38;;
64353;SDS011;50681;53.334;-6.536;2023-02-14T13:22:36;29.45;;;4.63;;
64353;SDS011;50681;53.334;-6.536;2023-02-14T13:27:31;29.23;;;5.05;;
64353;SDS011;50681;53.334;-6.536;2023-02-14T13:30:12;32.50;;;5.70;;
64353;SDS011;50681;53.334;-6.536;2023-02-14T13:32:47;18.33;;;4.90;;
64353;SDS011;50681;53.334;-6.536;2023-02-14T13:35:17;17.65;;;4.18;;
64353;SDS011;50681;53.334;-6.536;2023-02-14T13:37:48;20.25;;;4.30;;
64353;SDS011;50681;53.334;-6.536;2023-02-14T13:40:19;20.33;;;4.63;;
64353;SDS011;50681;53.334;-6.536;2023-02-14T13:42:51;33.75;;;4.70;;
64353;SDS011;50681;53.334;-6.536;2023-02-14T13:58:47;22.83;;;4.80;;
64353;SDS011;50681;53.334;-6.536;2023-02-14T14:07:37;20.15;;;4.28;;
64353;SDS011;50681;53.334;-6.536;2023-02-14T14:17:31;28.75;;;4.78;;
64353;SDS011;50681;53.334;-6.536;2023-02-14T14:20:02;27.75;;;4.25;;
64353;SDS011;50681;53.334;-6.536;2023-02-14T14:22:49;23.60;;;3.17;;
64353;SDS011;50681;53.334;-6.536;2023-02-14T14:25:31;25.45;;;4.50;;
64353;SDS011;50681;53.334;-6.536;2023-02-14T14:28:03;28.50;;;4.78;;
64353;SDS011;50681;53.334;-6.536;2023-02-14T14:30:37;25.88;;;5.15;;
64353;SDS011;50681;53.334;-6.536;2023-02-14T14:33:13;24.02;;;5.10;;
64353;SDS011;50681;53.334;-6.536;2023-02-14T14:35:50;18.45;;;3.88;;
64353;SDS011;50681;53.334;-6.536;2023-02-14T14:38:21;24.35;;;4.10;;
64353;SDS011;50681;53.334;-6.536;2023-02-14T14:40:46;17.97;;;4.00;;
64353;SDS011;50681;53.334;-6.536;2023-02-14T14:43:35;20.15;;;4.00;;
64353;SDS011;50681;53.334;-6.536;2023-02-14T14:46:02;26.88;;;3.40;;
64353;SDS011;50681;53.334;-6.536;2023-02-14T14:48:32;21.80;;;4.13;;
64353;SDS011;50681;53.334;-6.536;2023-02-14T14:51:03;23.90;;;4.28;;
64353;SDS011;50681;53.334;-6.536;2023-02-14T14:53:34;13.98;;;3.25;;
64353;SDS011;50681;53.334;-6.536;2023-02-14T14:56:10;19.83;;;3.40;;
64353;SDS011;50681;53.334;-6.536;2023-02-14T14:58:43;25.73;;;4.05;;
64353;SDS011;50681;53.334;-6.536;2023-02-14T15:01:18;25.17;;;4.38;;
64353;SDS011;50681;53.334;-6.536;2023-02-14T15:03:53;21.35;;;3.92;;
64353;SDS011;50681;53.334;-6.536;2023-02-14T15:06:19;13.38;;;3.40;;
64353;SDS011;50681;53.334;-6.536;2023-02-14T15:08:46;18.20;;;4.80;;
64353;SDS011;50681;53.334;-6.536;2023-02-14T15:14:15;20.30;;;4.07;;
64353;SDS011;50681;53.334;-6.536;2023-02-14T15:16:56;17.23;;;3.35;;
64353;SDS011;50681;53.334;-6.536;2023-02-14T15:22:51;20.23;;;3.30;;
64353;SDS011;50681;53.334;-6.536;2023-02-14T15:28:02;25.08;;;4.03;;
64353;SDS011;50681;53.334;-6.536;2023-02-14T15:30:29;20.60;;;4.95;;
64353;SDS011;50681;53.334;-6.536;2023-02-14T15:32:59;15.95;;;4.22;;
64353;SDS011;50681;53.334;-6.536;2023-02-14T15:35:30;22.67;;;4.57;;
64353;SDS011;50681;53.334;-6.536;2023-02-14T15:37:57;21.15;;;4.22;;
64353;SDS011;50681;53.334;-6.536;2023-02-14T15:40:27;27.30;;;4.30;;
64353;SDS011;50681;53.334;-6.536;2023-02-14T15:48:53;21.38;;;5.60;;
64353;SDS011;50681;53.334;-6.536;2023-02-14T15:51:24;24.05;;;5.10;;
64353;SDS011;50681;53.334;-6.536;2023-02-14T15:53:54;22.48;;;4.45;;
64353;SDS011;50681;53.334;-6.536;2023-02-14T15:56:29;22.63;;;4.45;;
64353;SDS011;50681;53.334;-6.536;2023-02-14T15:59:04;20.95;;;5.07;;
64353;SDS011;50681;53.334;-6.536;2023-02-14T16:01:57;18.77;;;4.97;;
64353;SDS011;50681;53.334;-6.536;2023-02-14T16:04:27;24.05;;;8.35;;
64353;SDS011;50681;53.334;-6.536;2023-02-14T16:07:05;37.17;;;14.32;;
64353;SDS011;50681;53.334;-6.536;2023-02-14T16:09:37;52.05;;;19.08;;
64353;SDS011;50681;53.334;-6.536;2023-02-14T16:15:16;53.83;;;22.98;;
64353;SDS011;50681;53.334;-6.536;2023-02-14T16:20:20;32.53;;;10.98;;
64353;SDS011;50681;53.334;-6.536;2023-02-14T16:23:15;32.15;;;13.32;;
64353;SDS011;50681;53.334;-6.536;2023-02-14T16:25:43;37.20;;;12.50;;
64353;SDS011;50681;53.334;-6.536;2023-02-14T16:28:10;29.95;;;9.90;;
64353;SDS011;50681;53.334;-6.536;2023-02-14T16:30:36;31.08;;;13.73;;
64353;SDS011;50681;53.334;-6.536;2023-02-14T16:33:04;37.90;;;13.45;;
64353;SDS011;50681;53.334;-6.536;2023-02-14T16:35:31;35.88;;;11.43;;
64353;SDS011;50681;53.334;-6.536;2023-02-14T16:37:57;35.63;;;17.27;;
64353;SDS011;50681;53.334;-6.536;2023-02-14T16:40:24;37.03;;;14.13;;
64353;SDS011;50681;53.334;-6.536;2023-02-14T16:42:51;36.65;;;17.35;;
64353;SDS011;50681;53.334;-6.536;2023-02-14T16:45:18;46.95;;;22.80;;
64353;SDS011;50681;53.334;-6.536;2023-02-14T16:47:47;26.92;;;11.15;;
64353;SDS011;50681;53.334;-6.536;2023-02-14T16:50:13;42.50;;;14.43;;
64353;SDS011;50681;53.334;-6.536;2023-02-14T16:52:39;31.65;;;9.85;;
64353;SDS011;50681;53.334;-6.536;2023-02-14T16:55:06;33.30;;;9.85;;
64353;SDS011;50681;53.334;-6.536;2023-02-14T16:57:39;24.00;;;7.50;;
64353;SDS011;50681;53.334;-6.536;2023-02-14T17:00:07;22.45;;;7.63;;
64353;SDS011;50681;53.334;-6.536;2023-02-14T17:02:36;20.73;;;5.63;;
64353;SDS011;50681;53.334;-6.536;2023-02-14T17:05:06;31.52;;;9.13;;
64353;SDS011;50681;53.334;-6.536;2023-02-14T17:07:32;29.27;;;8.93;;
64353;SDS011;50681;53.334;-6.536;2023-02-14T17:10:00;28.23;;;7.40;;
64353;SDS011;50681;53.334;-6.536;2023-02-14T17:12:31;22.95;;;9.93;;
64353;SDS011;50681;53.334;-6.536;2023-02-14T17:15:00;29.60;;;8.38;;
64353;SDS011;50681;53.334;-6.536;2023-02-14T17:17:32;25.88;;;6.30;;
64353;SDS011;50681;53.334;-6.536;2023-02-14T17:19:59;24.70;;;8.10;;
64353;SDS011;50681;53.334;-6.536;2023-02-14T17:22:25;28.00;;;8.48;;
64353;SDS011;50681;53.334;-6.536;2023-02-14T17:24:50;22.30;;;7.10;;
64353;SDS011;50681;53.334;-6.536;2023-02-14T17:27:16;46.50;;;21.80;;
64353;SDS011;50681;53.334;-6.536;2023-02-14T17:29:41;25.40;;;5.73;;
64353;SDS011;50681;53.334;-6.536;2023-02-14T17:32:09;26.30;;;8.40;;
64353;SDS011;50681;53.334;-6.536;2023-02-14T17:34:36;23.67;;;9.30;;